Home   Weather   Germany   Buxtehude   Past weeks
Flag for Germany

Past Weather in Buxtehude, Lower Saxony, Germany — Yesterday and Last 2 Weeks

Currently: 37 °F. Passing clouds. (Weather station: Hamburg-Finkenwerder, Germany). See more current weather

Past Weather in Buxtehude — Graph

°F

Buxtehude Temperature Yesterday

Maximum temperature yesterday: 43 °F (at 2:20 pm)
Minimum temperature yesterday: 34 °F (at 11:50 pm)
Average temperature yesterday: 38 °F

High & Low Weather Summary for the Past Weeks

 TemperatureHumidityPressure
High68 °F (Feb 22, 2:20 pm)100% (Feb 27, 9:20 pm)30.69 "Hg (Feb 27, 9:20 pm)
Low27 °F (Mar 8, 6:20 am)30% (Feb 22, 2:20 pm)29.98 "Hg (Feb 21, 7:20 pm)
Average43 °F79%30.36 "Hg
* Reported Feb 21 7:20 pm — Mar 8 7:20 pm, Buxtehude. Weather by CustomWeather, © 2021

Note: Actual official high and low records may vary slightly from our data, if they occured in-between our weather recording intervals... More about our weather records

Buxtehude Weather History for the Previous 24 Hours

Scroll right to see more
 ConditionsComfort  
Time TempWeatherWind HumidityBarometerVisibility
7:20 pm
Mon, Mar 8
39 °FPassing clouds.5 mph39%30.18 "HgN/A
6:50 pm39 °FPassing clouds.5 mph39%30.18 "HgN/A
6:20 pm39 °FPassing clouds.3 mph39%30.18 "HgN/A
5:50 pm39 °FSunny.3 mph39%30.18 "Hg10 mi
5:20 pm41 °FPassing clouds.5 mph36%30.18 "HgN/A
4:50 pm41 °FPassing clouds.5 mph36%30.18 "HgN/A
4:20 pm43 °FPassing clouds.5 mph31%30.18 "HgN/A
3:50 pm43 °FPassing clouds.6 mph31%30.18 "HgN/A
3:20 pm43 °FPassing clouds.7 mph36%30.21 "HgN/A
2:50 pm43 °FPassing clouds.7 mph36%30.21 "HgN/A
2:20 pm43 °FPassing clouds.6 mph39%30.21 "HgN/A
1:50 pm43 °FSunny.3 mph39%30.21 "Hg10 mi
1:20 pm41 °FSunny.5 mph39%30.21 "Hg10 mi
12:50 pm41 °FPassing clouds.5 mph42%30.24 "HgN/A
12:20 pm39 °FPassing clouds.6 mph56%30.24 "HgN/A
11:50 am41 °FSunny.2 mph49%30.24 "Hg10 mi
11:20 am39 °FSunny.2 mph65%30.24 "Hg10 mi
10:50 am37 °FSunny.2 mph65%30.24 "Hg10 mi
10:20 am37 °FSunny.2 mph70%30.24 "Hg10 mi
9:50 am36 °FSunny.2 mph70%30.24 "Hg10 mi
9:20 am34 °FPassing clouds.3 mph75%30.24 "HgN/A
8:50 am32 °FSunny.3 mph80%30.24 "Hg10 mi
8:20 am30 °FSunny.2 mph86%30.21 "Hg10 mi
7:50 am27 °FSunny.2 mph86%30.21 "Hg10 mi
7:20 am27 °FSunny.3 mph93%30.21 "Hg10 mi
6:50 am27 °FClear.3 mph86%30.18 "Hg10 mi
6:20 am27 °FPassing clouds.3 mph86%30.18 "HgN/A
5:50 am28 °FClear.2 mph86%30.18 "HgN/A
5:20 am28 °FClear.5 mph80%30.18 "HgN/A
4:50 am28 °FClear.2 mph86%30.18 "HgN/A
4:20 am28 °FClear.2 mph86%30.15 "HgN/A
3:50 am28 °FClear.3 mph86%30.15 "HgN/A
3:20 am30 °FClear.5 mph80%30.15 "HgN/A
2:50 am32 °FClear.8 mph75%30.15 "HgN/A
2:20 am32 °FPassing clouds.8 mph80%30.15 "HgN/A
1:50 am32 °FPassing clouds.6 mph87%30.15 "HgN/A
1:20 am34 °FPassing clouds.7 mph81%30.15 "HgN/A
12:50 am34 °FPassing clouds.7 mph81%30.15 "HgN/A
12:20 am34 °FPassing clouds.7 mph81%30.15 "HgN/A
11:50 pm
Sun, Mar 7
34 °FPassing clouds.8 mph87%30.12 "HgN/A
11:20 pm36 °FPassing clouds.9 mph81%30.12 "HgN/A
10:50 pm36 °FPartly cloudy.8 mph81%30.12 "HgN/A
10:20 pm36 °FPassing clouds.7 mph81%30.12 "HgN/A
9:50 pm37 °FPassing clouds.7 mph75%30.12 "HgN/A
9:20 pm37 °FPassing clouds.12 mph75%30.12 "HgN/A
8:50 pm39 °FOvercast.13 mph87%30.09 "HgN/A
8:20 pm39 °FMostly cloudy.10 mph93%30.09 "HgN/A
Weather by CustomWeather, © 2021

See weather overview